createdAt,value
2022-12-08T06:09:44.611Z,1.44
2022-12-08T06:10:48.732Z,1.48
2022-12-08T06:11:52.128Z,1.45
2022-12-08T06:12:55.666Z,1.45
2022-12-08T06:14:03.384Z,1.58
2022-12-08T06:15:08.323Z,1.64
2022-12-08T06:16:14.406Z,1.84
2022-12-08T06:17:19.887Z,1.94
2022-12-08T06:18:22.983Z,1.94
2022-12-08T06:19:25.278Z,1.99
2022-12-08T06:22:00.387Z,2.06
2022-12-08T06:23:04.207Z,1.92
2022-12-08T06:24:09.324Z,1.99
2022-12-08T06:25:12.869Z,1.91
2022-12-08T06:26:18.483Z,1.84
2022-12-08T06:27:22.115Z,1.87
2022-12-08T06:28:26.607Z,1.82
2022-12-08T06:29:29.986Z,1.65
2022-12-08T06:30:33.518Z,1.59
2022-12-08T06:31:37.083Z,1.70
2022-12-08T06:32:39.491Z,1.85
2022-12-08T06:33:43.381Z,2.02
2022-12-08T06:34:47.703Z,2.13
2022-12-08T06:35:51.282Z,2.25
2022-12-08T07:45:17.014Z,2.91
2022-12-08T07:46:24.525Z,2.86
2022-12-08T07:47:30.334Z,2.92
2022-12-08T07:48:34.309Z,3.02
2022-12-08T07:49:38.608Z,3.00
2022-12-08T07:50:44.358Z,3.01
2022-12-08T07:51:47.981Z,3.00
2022-12-08T07:52:51.762Z,2.84
2022-12-08T07:53:55.407Z,3.06
2022-12-08T07:54:59.003Z,3.11
2022-12-08T07:56:06.263Z,3.14
2022-12-08T07:57:09.395Z,3.09
2022-12-08T07:58:14.381Z,2.93
2022-12-08T07:59:17.892Z,3.04
2022-12-08T08:00:22.005Z,3.08
2022-12-08T08:01:27.768Z,2.93
2022-12-08T08:02:30.367Z,3.03
2022-12-08T08:03:34.250Z,3.18
2022-12-08T08:04:54.017Z,3.18
2022-12-08T08:06:07.001Z,3.12
2022-12-08T08:07:09.893Z,3.12
2022-12-08T08:08:12.318Z,3.08
2022-12-08T08:09:15.746Z,3.13
2022-12-08T08:10:18.459Z,3.06
2022-12-08T08:11:22.108Z,3.06
2022-12-08T08:12:33.371Z,3.07
2022-12-08T08:13:30.919Z,3.02
2022-12-08T08:14:33.329Z,3.01
2022-12-08T08:15:37.532Z,3.11
2022-12-08T08:16:43.397Z,3.07
2022-12-08T08:17:52.915Z,3.08
2022-12-08T08:18:56.389Z,3.05
2022-12-08T08:19:58.884Z,3.13
2022-12-08T08:21:22.111Z,3.09
2022-12-08T08:22:10.795Z,3.08
2022-12-08T08:23:14.625Z,3.21
2022-12-08T08:24:17.354Z,3.29
2022-12-08T08:25:24.830Z,3.16
2022-12-08T08:26:28.473Z,3.09
2022-12-08T08:27:32.016Z,3.12
2022-12-08T08:28:36.962Z,3.27
2022-12-08T08:29:40.498Z,3.30
2022-12-08T08:30:43.680Z,3.23
2022-12-08T08:31:47.269Z,3.17
2022-12-08T08:32:50.277Z,3.01
2022-12-08T08:33:53.703Z,3.17
2022-12-08T08:34:57.278Z,3.22
2022-12-08T08:36:01.195Z,3.08
2022-12-08T08:37:04.727Z,3.05
2022-12-08T08:38:08.682Z,3.15
2022-12-08T08:39:15.912Z,3.10
2022-12-08T08:40:21.339Z,3.16
2022-12-08T08:41:25.406Z,3.17
2022-12-08T08:42:29.323Z,3.12
2022-12-08T08:43:37.824Z,3.23
2022-12-08T08:44:38.364Z,3.44
2022-12-08T08:45:43.129Z,3.50
2022-12-08T08:46:47.671Z,3.50
2022-12-08T08:47:52.523Z,3.42
2022-12-08T08:48:56.798Z,3.43
2022-12-08T08:50:01.992Z,3.61
2022-12-08T08:51:13.360Z,3.76
2022-12-08T08:52:26.296Z,3.79
2022-12-08T08:53:30.956Z,3.69
2022-12-08T08:54:37.395Z,3.58
2022-12-08T08:55:40.938Z,3.61
2022-12-08T08:56:44.317Z,3.58
2022-12-08T08:57:48.661Z,3.60
2022-12-08T08:58:54.432Z,3.52
2022-12-08T08:59:57.372Z,3.51
2022-12-08T09:01:00.930Z,3.65
2022-12-08T09:02:04.408Z,3.66
2022-12-08T09:03:07.924Z,3.47
2022-12-08T09:04:11.269Z,3.44
2022-12-08T09:05:15.142Z,3.54
2022-12-08T09:06:20.055Z,3.41
2022-12-08T09:07:24.791Z,3.31
2022-12-08T09:08:27.369Z,3.22
2022-12-08T09:09:30.578Z,3.32
2022-12-08T09:10:34.022Z,3.46
2022-12-08T09:11:38.385Z,3.30
2022-12-08T09:12:43.032Z,3.41
2022-12-08T09:13:50.735Z,3.30
2022-12-08T09:14:54.096Z,3.52
2022-12-08T09:15:56.408Z,3.54
2022-12-08T09:17:03.731Z,3.43
2022-12-08T09:18:08.584Z,3.39
2022-12-08T09:19:12.293Z,3.45
2022-12-08T09:20:16.127Z,3.51
2022-12-08T09:21:23.354Z,3.55
2022-12-08T09:22:27.402Z,3.51
2022-12-08T09:23:35.178Z,3.58
2022-12-08T09:24:36.667Z,3.50
2022-12-08T09:25:41.273Z,3.50
2022-12-08T09:26:45.852Z,3.64
2022-12-08T09:27:50.320Z,3.60
2022-12-08T09:28:57.425Z,3.48
2022-12-08T09:30:01.272Z,3.66
2022-12-08T09:31:06.546Z,3.80
2022-12-08T09:32:09.839Z,3.90
2022-12-08T09:33:12.215Z,3.89
2022-12-08T09:34:15.852Z,3.77
2022-12-08T09:35:19.299Z,3.67
2022-12-08T09:36:23.180Z,3.77
2022-12-08T09:37:28.532Z,3.66
2022-12-08T09:38:35.093Z,3.50
2022-12-08T09:39:38.417Z,3.59
2022-12-08T09:40:53.275Z,3.62
2022-12-08T09:42:08.225Z,3.66
2022-12-08T09:43:27.446Z,3.72
2022-12-08T09:44:46.455Z,3.82
2022-12-08T09:45:53.017Z,3.66
2022-12-08T09:46:56.183Z,3.76
2022-12-08T09:48:21.879Z,3.66
2022-12-08T09:50:56.975Z,3.94
2022-12-08T09:52:01.120Z,3.77
2022-12-08T09:53:13.085Z,4.00
2022-12-08T09:54:24.778Z,4.13
2022-12-08T09:55:43.914Z,4.24
2022-12-08T09:56:50.808Z,4.24
2022-12-08T09:57:58.529Z,4.19
2022-12-08T09:59:08.711Z,4.09
2022-12-08T10:00:14.187Z,4.04
2022-12-08T10:01:18.635Z,3.96
2022-12-08T10:02:26.823Z,3.94
2022-12-08T10:03:31.395Z,3.80
2022-12-08T10:04:42.081Z,3.79
2022-12-08T10:05:49.656Z,3.89
2022-12-08T10:06:56.966Z,3.85
2022-12-08T10:08:22.114Z,3.72
2022-12-08T10:09:40.395Z,3.69
2022-12-08T10:10:54.399Z,3.62
2022-12-08T10:13:23.269Z,3.56
2022-12-08T10:14:30.646Z,3.62
2022-12-08T10:16:07.031Z,3.70
2022-12-08T10:17:20.324Z,3.66
2022-12-08T10:18:27.738Z,3.85
2022-12-08T10:19:34.125Z,3.82
2022-12-08T10:20:41.367Z,3.82
2022-12-08T10:21:45.099Z,3.79
2022-12-08T10:23:01.295Z,3.73
2022-12-08T10:24:09.833Z,3.83
2022-12-08T10:26:34.271Z,3.99
2022-12-08T10:27:37.263Z,3.95
2022-12-08T10:28:45.217Z,3.95
2022-12-08T10:29:47.193Z,4.04
2022-12-08T10:30:50.867Z,4.04
2022-12-08T10:31:55.841Z,4.01
2022-12-08T10:33:00.163Z,3.93
2022-12-08T10:34:20.069Z,4.03
2022-12-08T10:35:24.854Z,4.13
2022-12-08T10:36:47.852Z,4.15
2022-12-08T10:37:59.363Z,4.22
2022-12-08T10:39:05.497Z,4.23
2022-12-08T10:40:14.921Z,4.27
2022-12-08T10:41:18.287Z,4.04
2022-12-08T10:42:23.969Z,4.06
2022-12-08T10:43:28.401Z,3.93
2022-12-08T10:44:31.089Z,3.63
2022-12-08T10:45:43.546Z,3.38
2022-12-08T10:46:47.692Z,3.52
2022-12-08T10:48:03.892Z,3.57
2022-12-08T10:49:12.569Z,3.68
2022-12-08T10:50:23.962Z,3.91
2022-12-08T10:51:37.024Z,3.98
2022-12-08T10:52:41.682Z,3.99
2022-12-08T10:53:47.437Z,3.73
2022-12-08T10:54:55.431Z,3.74
2022-12-08T10:56:06.559Z,3.70
2022-12-08T10:57:13.820Z,3.57
2022-12-08T10:58:37.380Z,3.57
2022-12-08T10:59:42.921Z,3.48
2022-12-08T11:00:46.258Z,3.44
2022-12-08T11:01:56.135Z,3.62
2022-12-08T11:03:03.259Z,3.66
2022-12-08T11:04:14.368Z,3.68
2022-12-08T11:05:20.535Z,3.82
2022-12-08T11:06:35.591Z,3.74
2022-12-08T11:07:44.090Z,3.59
2022-12-08T11:08:57.326Z,3.54
2022-12-08T11:10:03.006Z,3.61
2022-12-08T11:11:06.584Z,3.64
2022-12-08T11:12:18.379Z,3.41
2022-12-08T11:13:29.402Z,3.32
2022-12-08T11:14:36.532Z,3.15
2022-12-08T11:15:41.811Z,3.15
2022-12-08T11:16:46.100Z,3.07
2022-12-08T11:17:57.630Z,3.31
2022-12-08T11:19:07.224Z,3.35
2022-12-08T11:20:17.378Z,3.25
2022-12-08T11:21:20.652Z,3.28
2022-12-08T11:22:35.963Z,3.34
2022-12-08T11:23:43.957Z,3.36
2022-12-08T11:26:24.988Z,3.24
2022-12-08T11:27:28.905Z,3.26
2022-12-08T11:28:34.667Z,3.32
2022-12-08T11:29:39.386Z,3.43
2022-12-08T11:30:46.654Z,3.32
2022-12-08T11:31:59.998Z,3.26
2022-12-08T11:33:12.892Z,3.16
2022-12-08T11:35:34.457Z,3.23
2022-12-08T11:36:42.677Z,3.28
2022-12-08T11:37:46.269Z,3.27
2022-12-08T11:38:52.918Z,3.28
2022-12-08T11:40:00.074Z,3.32
2022-12-08T11:41:17.800Z,3.18
2022-12-08T11:42:24.636Z,3.06
2022-12-08T11:43:41.144Z,3.06
2022-12-08T11:44:57.618Z,3.04
2022-12-08T11:46:04.223Z,3.07
2022-12-08T11:48:58.981Z,3.09
2022-12-08T11:50:22.527Z,3.22
2022-12-08T11:51:30.116Z,3.12
2022-12-08T11:52:37.463Z,2.91
2022-12-08T11:53:56.880Z,3.02
2022-12-08T11:55:27.443Z,3.08
2022-12-08T11:56:46.608Z,3.17
2022-12-08T11:57:51.093Z,3.17
2022-12-08T11:59:01.339Z,3.01
2022-12-08T12:00:08.737Z,2.89
2022-12-08T12:01:25.942Z,2.82
2022-12-08T12:02:32.604Z,2.63
2022-12-08T12:03:39.964Z,2.56
2022-12-08T12:04:59.789Z,2.63
2022-12-08T12:06:37.715Z,2.57
2022-12-08T12:07:40.171Z,2.56
2022-12-08T12:09:04.433Z,2.34
2022-12-08T12:10:41.633Z,2.37
2022-12-08T12:12:16.097Z,2.56
2022-12-08T12:13:39.472Z,2.58
2022-12-08T12:15:07.109Z,2.64
2022-12-08T12:18:13.412Z,2.71
2022-12-08T12:19:19.922Z,2.59
2022-12-08T12:20:34.105Z,2.65
2022-12-08T12:21:48.120Z,2.74
2022-12-08T12:22:55.229Z,2.70
2022-12-08T12:24:08.912Z,2.80
2022-12-08T12:25:26.427Z,2.80
2022-12-08T12:26:38.950Z,2.80
2022-12-08T12:27:45.805Z,2.85
2022-12-08T12:29:01.126Z,2.81
2022-12-08T12:30:08.505Z,2.82
2022-12-08T12:31:15.610Z,2.77
2022-12-08T12:32:22.164Z,2.69
2022-12-08T12:33:27.842Z,2.75
2022-12-08T12:34:37.229Z,2.67
2022-12-08T12:35:48.919Z,2.62
2022-12-08T12:37:00.112Z,2.71
2022-12-08T12:39:27.008Z,2.79
2022-12-08T12:40:38.724Z,2.75
2022-12-08T12:41:44.861Z,2.62
2022-12-08T12:43:01.180Z,2.57
2022-12-08T12:44:12.031Z,2.37
2022-12-08T12:45:21.155Z,2.43
2022-12-08T12:46:30.455Z,2.31
2022-12-08T12:49:19.542Z,2.56
2022-12-08T12:50:38.925Z,2.42
2022-12-08T12:51:48.196Z,2.42
2022-12-08T12:52:51.823Z,2.46
2022-12-08T12:53:55.240Z,2.52
2022-12-08T12:55:04.653Z,2.41
2022-12-08T12:56:10.659Z,2.34
2022-12-08T12:57:21.000Z,2.46
2022-12-08T12:58:35.167Z,2.50
2022-12-08T12:59:55.853Z,2.51
2022-12-08T13:01:15.357Z,2.43
2022-12-08T13:02:32.126Z,2.42
2022-12-08T13:03:36.606Z,2.52
2022-12-08T13:04:41.263Z,2.43
2022-12-08T13:05:54.502Z,2.42
2022-12-08T13:06:59.970Z,2.33
2022-12-08T13:08:08.996Z,2.19
2022-12-08T13:09:25.081Z,2.16
2022-12-08T13:10:38.967Z,2.17
2022-12-08T13:11:50.321Z,2.22
2022-12-08T13:13:16.883Z,2.18
2022-12-08T18:10:41.080Z,0.48
2022-12-08T18:11:47.889Z,0.43
2022-12-08T18:12:51.539Z,0.44
2022-12-08T18:13:56.719Z,0.49
2022-12-08T18:15:00.017Z,0.56
2022-12-08T18:16:05.715Z,0.52
2022-12-08T18:17:10.542Z,0.52
2022-12-08T18:18:14.083Z,0.56
2022-12-08T18:19:17.517Z,0.59
2022-12-08T18:20:21.406Z,0.48
2022-12-08T18:21:26.815Z,0.54
2022-12-08T18:22:31.272Z,0.48
2022-12-08T18:23:37.666Z,0.59
2022-12-08T18:24:43.760Z,0.52
2022-12-08T18:25:48.203Z,0.45
2022-12-08T18:26:52.535Z,0.49
2022-12-08T18:27:56.906Z,0.54
2022-12-08T18:29:01.208Z,0.55
2022-12-08T18:30:05.934Z,0.55
2022-12-08T18:32:35.922Z,0.55
2022-12-08T18:33:42.247Z,0.54
2022-12-08T18:34:45.099Z,0.47
2022-12-08T18:35:48.454Z,0.43
2022-12-08T18:36:52.140Z,0.46
2022-12-08T18:37:56.437Z,0.49
2022-12-08T18:39:00.043Z,0.47
2022-12-08T18:40:05.258Z,0.48
2022-12-08T18:41:11.080Z,0.49
2022-12-08T18:42:24.381Z,0.43
2022-12-08T18:43:27.859Z,0.51
2022-12-08T18:44:31.108Z,0.48
2022-12-08T18:45:37.556Z,0.52
2022-12-08T18:46:41.049Z,0.55
2022-12-08T18:47:46.684Z,0.62
2022-12-08T18:48:54.161Z,0.52
2022-12-08T18:49:59.134Z,0.49
2022-12-08T18:51:03.556Z,0.50
2022-12-08T18:52:06.746Z,0.57
2022-12-08T18:53:09.141Z,0.46
2022-12-08T18:54:13.764Z,0.51
2022-12-08T18:55:18.432Z,0.58
2022-12-08T18:56:26.562Z,0.58
2022-12-08T18:57:29.989Z,0.60
2022-12-08T18:58:34.607Z,0.57
2022-12-08T18:59:40.177Z,0.55
2022-12-08T19:00:43.677Z,0.50
2022-12-08T19:01:50.990Z,0.48
2022-12-08T19:02:54.936Z,0.46
2022-12-08T19:05:09.046Z,0.52
2022-12-08T19:06:13.644Z,0.54
2022-12-08T19:07:19.749Z,0.49
2022-12-08T19:08:28.145Z,0.52
2022-12-08T19:09:28.382Z,0.52
2022-12-08T19:10:31.661Z,0.54
2022-12-08T19:11:35.136Z,0.59
2022-12-08T19:12:38.516Z,0.51
2022-12-08T19:13:41.727Z,0.51
2022-12-08T19:14:44.700Z,0.58
2022-12-08T19:15:48.324Z,0.64
2022-12-08T19:16:52.574Z,0.60
2022-12-08T19:17:55.839Z,0.60
2022-12-08T19:20:18.520Z,0.46
2022-12-08T19:21:22.890Z,0.45
2022-12-08T19:22:28.172Z,0.45
2022-12-08T19:23:35.728Z,0.38
2022-12-08T19:24:38.258Z,0.39
2022-12-08T19:25:42.196Z,0.34
2022-12-08T19:26:47.445Z,0.34
2022-12-08T19:27:51.631Z,0.40
2022-12-08T19:28:56.541Z,0.40
2022-12-08T19:30:00.124Z,0.44
2022-12-08T19:31:07.633Z,0.45
2022-12-08T19:32:14.207Z,0.52
2022-12-08T19:33:18.686Z,0.49
2022-12-08T19:34:21.617Z,0.56
2022-12-08T19:35:25.990Z,0.58
2022-12-08T19:36:30.442Z,0.55
2022-12-08T19:37:34.395Z,0.53
2022-12-08T19:38:57.284Z,0.48
2022-12-08T19:40:18.755Z,0.43
2022-12-08T19:41:42.051Z,0.40
2022-12-08T19:43:09.888Z,0.45
2022-12-08T19:44:32.348Z,0.45
2022-12-08T19:45:37.003Z,0.37
2022-12-08T19:46:40.918Z,0.20
2022-12-08T19:47:45.176Z,0.27
2022-12-08T19:48:48.837Z,0.28
2022-12-08T19:49:55.171Z,0.17
2022-12-08T19:51:01.989Z,0.15
2022-12-08T19:52:05.665Z,0.09
2022-12-08T19:53:12.707Z,-0.04
2022-12-08T19:54:19.748Z,0.05
2022-12-08T19:55:26.839Z,0.06
2022-12-08T19:56:30.324Z,-0.07
2022-12-08T19:57:33.916Z,-0.06
2022-12-08T19:58:36.348Z,-0.14
2022-12-08T19:59:40.231Z,-0.13
2022-12-08T20:00:45.254Z,-0.09
2022-12-08T20:01:48.868Z,-0.04
2022-12-08T20:02:52.394Z,-0.09
2022-12-08T20:03:59.051Z,-0.06
2022-12-08T20:05:06.648Z,-0.01
2022-12-08T20:06:18.726Z,0.12
2022-12-08T20:07:22.185Z,0.10
2022-12-08T20:08:26.801Z,0.19
2022-12-08T20:09:30.592Z,0.14
2022-12-08T20:10:37.242Z,0.23
2022-12-08T20:11:41.456Z,0.24
2022-12-08T20:12:45.777Z,0.26
2022-12-08T20:13:48.842Z,0.12
2022-12-08T20:14:54.409Z,0.18
2022-12-08T20:15:57.508Z,0.18
2022-12-08T20:17:01.218Z,0.22
2022-12-08T20:18:05.009Z,0.21
2022-12-08T20:19:07.378Z,0.09
2022-12-08T20:21:25.586Z,0.11
2022-12-08T20:22:29.420Z,0.01
2022-12-08T20:23:34.545Z,0.00
2022-12-08T20:24:38.071Z,0.07
2022-12-08T20:25:45.128Z,0.15
2022-12-08T20:26:48.820Z,0.20
2022-12-08T20:27:52.456Z,0.27
2022-12-08T20:28:56.000Z,0.21
2022-12-08T20:29:59.635Z,0.20
2022-12-08T20:31:04.113Z,0.05
2022-12-08T20:32:08.106Z,0.11
2022-12-08T20:33:14.531Z,0.11
2022-12-08T20:34:22.026Z,0.13
2022-12-08T20:35:24.543Z,0.00
2022-12-08T20:36:28.680Z,-0.05
2022-12-08T20:37:33.223Z,-0.13
2022-12-08T20:38:36.839Z,-0.10
2022-12-08T20:39:44.608Z,-0.11
2022-12-08T20:42:06.472Z,-0.01
2022-12-08T20:43:12.488Z,-0.07
2022-12-08T20:44:17.064Z,-0.12
2022-12-08T20:45:22.268Z,-0.09
2022-12-08T20:46:28.742Z,-0.22
2022-12-08T20:47:32.392Z,-0.10
2022-12-08T20:48:35.655Z,-0.11
2022-12-08T20:49:42.846Z,-0.11
2022-12-08T20:50:49.764Z,-0.12
2022-12-08T20:51:53.220Z,-0.13
2022-12-08T20:52:58.555Z,-0.08
2022-12-08T20:54:02.850Z,0.00
2022-12-08T20:55:07.846Z,0.04
2022-12-08T20:57:34.777Z,0.01
2022-12-08T20:58:37.642Z,-0.06
2022-12-08T20:59:42.145Z,-0.03
2022-12-08T21:00:45.929Z,0.00
2022-12-08T21:01:49.687Z,0.01
2022-12-08T21:02:56.855Z,0.05
2022-12-08T21:03:59.248Z,0.09
2022-12-08T21:05:06.405Z,0.13
2022-12-08T21:06:12.733Z,0.04
2022-12-08T21:07:17.019Z,0.00
2022-12-08T21:08:21.141Z,-0.02
2022-12-08T21:09:25.181Z,-0.08
2022-12-08T21:10:28.887Z,-0.02
2022-12-08T21:11:40.996Z,0.00
2022-12-08T21:12:44.613Z,0.03
2022-12-08T21:13:50.015Z,0.12
2022-12-08T21:14:55.180Z,0.13
2022-12-08T21:15:59.397Z,0.13
2022-12-08T21:17:05.024Z,0.16
2022-12-08T21:18:10.199Z,0.18
2022-12-08T21:19:16.045Z,0.07
2022-12-08T21:20:18.679Z,0.19
2022-12-08T21:21:22.664Z,0.32
2022-12-08T21:22:26.363Z,0.30
2022-12-08T21:23:30.758Z,0.30
2022-12-08T21:24:35.021Z,0.33
2022-12-08T21:25:50.286Z,0.31
2022-12-08T21:26:56.891Z,0.37
2022-12-08T21:28:02.209Z,0.39
2022-12-08T21:29:06.562Z,0.41
2022-12-08T21:30:11.357Z,0.41
2022-12-08T21:31:17.435Z,0.44
2022-12-08T21:32:25.753Z,0.40
2022-12-08T21:33:29.531Z,0.38
2022-12-08T21:34:33.566Z,0.32
2022-12-08T21:35:39.110Z,0.40
2022-12-08T21:36:41.782Z,0.50
2022-12-08T21:37:45.399Z,0.52
2022-12-08T21:38:53.774Z,0.43
2022-12-08T21:39:58.429Z,0.46
2022-12-08T21:41:03.799Z,0.55
2022-12-08T21:42:30.787Z,0.54
2022-12-08T21:43:31.035Z,0.58
2022-12-08T21:44:37.565Z,0.53
2022-12-08T21:45:42.357Z,0.48
2022-12-08T21:46:46.104Z,0.43
2022-12-08T21:47:50.710Z,0.48
2022-12-08T21:48:54.485Z,0.49
2022-12-08T21:49:58.205Z,0.55
2022-12-08T21:51:04.860Z,0.53
2022-12-08T21:52:08.622Z,0.58
2022-12-08T21:53:12.194Z,0.56
2022-12-08T21:54:19.075Z,0.55
2022-12-08T21:55:20.796Z,0.47
2022-12-08T21:56:23.955Z,0.45
2022-12-08T21:57:30.048Z,0.45
2022-12-08T21:58:33.513Z,0.53
2022-12-08T21:59:37.467Z,0.56
2022-12-08T22:00:42.446Z,0.60
2022-12-08T22:01:46.840Z,0.55
